createdAt,value
2018-04-16T02:16:20.717Z,1010.02
2018-04-16T02:16:21.291Z,1010.04
2018-04-16T02:16:21.891Z,1010.05
2018-04-16T02:16:22.491Z,1010.09
2018-04-16T02:16:23.090Z,1010.05
2018-04-16T02:16:23.691Z,1010.04
2018-04-16T02:16:24.291Z,1010.05
2018-04-16T02:16:24.892Z,1010.02
2018-04-16T02:17:18.883Z,1010.04
2018-04-16T02:17:19.494Z,1010.05
2018-04-16T02:17:20.062Z,1010.03
2018-04-16T02:17:20.659Z,1010.08
2018-04-16T02:17:21.253Z,1010.09
2018-04-16T02:17:21.853Z,1010.08
2018-04-16T02:17:22.453Z,1010.10
2018-04-16T02:18:18.456Z,1010.09
2018-04-16T02:18:19.056Z,1010.08
2018-04-16T02:18:19.654Z,1010.09
2018-04-16T02:18:20.252Z,1010.08
2018-04-16T02:18:20.855Z,1010.07
2018-04-16T02:18:21.452Z,1010.07
2018-04-16T02:19:15.516Z,1010.08
2018-04-16T02:19:16.094Z,1010.09
2018-04-16T02:19:16.691Z,1010.11
2018-04-16T02:19:17.295Z,1010.11
2018-04-16T02:19:17.890Z,1010.11
2018-04-16T02:19:18.490Z,1010.06
2018-04-16T02:19:19.090Z,1010.05
2018-04-16T02:19:19.696Z,1010.08
2018-04-16T02:20:13.150Z,1010.12
2018-04-16T02:20:13.749Z,1010.12
2018-04-16T02:20:14.343Z,1010.09
2018-04-16T02:20:14.943Z,1010.06
2018-04-16T02:20:15.544Z,1010.08
2018-04-16T02:20:16.156Z,1010.08
2018-04-16T02:20:16.742Z,1010.07
2018-04-16T02:20:17.342Z,1010.11
2018-04-16T02:21:11.313Z,1010.13
2018-04-16T02:21:11.910Z,1010.10
2018-04-16T02:21:12.504Z,1010.07
2018-04-16T02:21:13.107Z,1010.13
2018-04-16T02:21:13.704Z,1010.08
2018-04-16T02:21:14.307Z,1010.08
2018-04-16T02:21:14.906Z,1010.09
2018-04-16T02:22:08.857Z,1010.09
2018-04-16T02:22:09.454Z,1010.10
2018-04-16T02:22:10.054Z,1010.07
2018-04-16T02:22:10.653Z,1010.12
2018-04-16T02:22:11.254Z,1010.10
2018-04-16T02:22:11.854Z,1010.11
2018-04-16T02:22:12.459Z,1010.09
2018-04-16T02:23:06.001Z,1010.08
2018-04-16T02:23:06.599Z,1010.08
2018-04-16T02:23:07.197Z,1010.10
2018-04-16T02:23:07.796Z,1010.10
2018-04-16T02:23:08.397Z,1010.12
2018-04-16T02:23:08.996Z,1010.09
2018-04-16T02:23:09.596Z,1010.07
2018-04-16T02:23:10.195Z,1010.08
2018-04-16T02:24:03.676Z,1010.13
2018-04-16T02:24:04.250Z,1010.14
2018-04-16T02:24:04.849Z,1010.11
2018-04-16T02:24:05.448Z,1010.14
2018-04-16T02:24:06.053Z,1010.14
2018-04-16T02:24:06.648Z,1010.14
2018-04-16T02:24:07.247Z,1010.13
2018-04-16T02:24:07.848Z,1010.11
2018-04-16T02:25:01.818Z,1010.09
2018-04-16T02:25:02.414Z,1010.09
2018-04-16T02:25:03.011Z,1010.10
2018-04-16T02:25:03.610Z,1010.10
2018-04-16T02:25:04.208Z,1010.08
2018-04-16T02:25:04.810Z,1010.07
2018-04-16T02:25:05.409Z,1010.06
2018-04-16T02:25:59.363Z,1010.15
2018-04-16T02:25:59.977Z,1010.12
2018-04-16T02:26:00.562Z,1010.12
2018-04-16T02:26:01.160Z,1010.13
2018-04-16T02:26:01.761Z,1010.09
2018-04-16T02:26:02.361Z,1010.08
2018-04-16T02:26:02.961Z,1010.10
2018-04-16T02:26:56.505Z,1010.07
2018-04-16T02:26:57.103Z,1010.09
2018-04-16T02:26:57.701Z,1010.10
2018-04-16T02:26:58.306Z,1010.08
2018-04-16T02:26:58.902Z,1010.06
2018-04-16T02:26:59.502Z,1010.07
2018-04-16T02:27:00.101Z,1010.09
2018-04-16T02:27:00.701Z,1010.10
2018-04-16T02:27:54.156Z,1010.08
2018-04-16T02:27:54.765Z,1010.12
2018-04-16T02:27:55.350Z,1010.10
2018-04-16T02:27:55.950Z,1010.07
2018-04-16T02:27:56.551Z,1010.10
2018-04-16T02:27:57.150Z,1010.09
2018-04-16T02:27:57.751Z,1010.08
2018-04-16T02:27:58.351Z,1010.07
2018-04-16T02:28:51.808Z,1010.05
2018-04-16T02:28:52.405Z,1010.11
2018-04-16T02:28:53.006Z,1010.06
2018-04-16T02:28:53.609Z,1010.09
2018-04-16T02:28:54.206Z,1010.07
2018-04-16T02:28:54.807Z,1010.11
2018-04-16T02:28:55.404Z,1010.07
2018-04-16T02:28:56.004Z,1010.13
2018-04-16T02:29:50.514Z,1010.07
2018-04-16T02:29:51.094Z,1010.09
2018-04-16T02:29:51.680Z,1010.07
2018-04-16T02:29:52.280Z,1010.05
2018-04-16T02:29:52.880Z,1010.08
2018-04-16T02:29:53.481Z,1010.08
2018-04-16T02:29:54.079Z,1010.11
2018-04-16T02:29:54.679Z,1010.10
2018-04-16T02:30:48.135Z,1010.15
2018-04-16T02:30:48.733Z,1010.11
2018-04-16T02:30:49.333Z,1010.09
2018-04-16T02:30:49.933Z,1010.11
2018-04-16T02:30:50.533Z,1010.14
2018-04-16T02:30:51.131Z,1010.13
2018-04-16T02:30:51.732Z,1010.10
2018-04-16T02:30:52.339Z,1010.11
2018-04-16T02:31:45.794Z,1010.05
2018-04-16T02:31:46.392Z,1010.07
2018-04-16T02:31:46.985Z,1010.04
2018-04-16T02:31:47.584Z,1010.06
2018-04-16T02:31:48.183Z,1010.08
2018-04-16T02:31:48.783Z,1010.08
2018-04-16T02:31:49.384Z,1010.09
2018-04-16T02:31:49.982Z,1010.13
2018-04-16T02:32:43.445Z,1010.09
2018-04-16T02:32:44.041Z,1010.09
2018-04-16T02:32:44.638Z,1010.09
2018-04-16T02:32:45.237Z,1010.10
2018-04-16T02:32:45.836Z,1010.10
2018-04-16T02:32:46.437Z,1010.09
2018-04-16T02:32:47.037Z,1010.11
2018-04-16T02:32:47.635Z,1010.07
2018-04-16T02:33:42.627Z,1010.08
2018-04-16T02:33:43.240Z,1010.07
2018-04-16T02:33:43.822Z,1010.03
2018-04-16T02:33:44.421Z,1010.06
2018-04-16T02:33:45.022Z,1010.06
2018-04-16T02:33:45.622Z,1010.06
2018-04-16T02:34:39.693Z,1010.05
2018-04-16T02:34:40.284Z,1010.09
2018-04-16T02:34:40.860Z,1010.03
2018-04-16T02:34:41.460Z,1010.06
2018-04-16T02:34:42.061Z,1010.05
2018-04-16T02:34:42.660Z,1010.06
2018-04-16T02:34:43.261Z,1010.06
2018-04-16T02:34:43.860Z,1010.04
2018-04-16T02:35:37.418Z,1010.07
2018-04-16T02:35:38.018Z,1010.07
2018-04-16T02:35:38.616Z,1010.12
2018-04-16T02:35:39.215Z,1010.07
2018-04-16T02:35:39.815Z,1010.06
2018-04-16T02:35:40.414Z,1010.07
2018-04-16T02:35:41.016Z,1010.07
2018-04-16T02:35:41.615Z,1010.09
2018-04-16T02:36:36.094Z,1010.06
2018-04-16T02:36:36.697Z,1010.09
2018-04-16T02:36:37.294Z,1010.07
2018-04-16T02:36:37.890Z,1010.08
2018-04-16T02:36:38.491Z,1010.08
2018-04-16T02:36:39.091Z,1010.07
2018-04-16T02:36:39.692Z,1010.07
2018-04-16T02:36:40.297Z,1010.02
2018-04-16T02:37:33.769Z,1010.10
2018-04-16T02:37:34.358Z,1010.07
2018-04-16T02:37:34.959Z,1010.07
2018-04-16T02:37:35.544Z,1010.04
2018-04-16T02:37:36.142Z,1010.07
2018-04-16T02:37:36.744Z,1010.08
2018-04-16T02:37:37.344Z,1010.06
2018-04-16T02:37:37.945Z,1010.09
2018-04-16T02:38:32.933Z,1010.07
2018-04-16T02:38:33.535Z,1010.06
2018-04-16T02:38:34.130Z,1010.05
2018-04-16T02:38:34.732Z,1010.06
2018-04-16T02:38:35.330Z,1010.10
2018-04-16T02:38:35.930Z,1010.06
2018-04-16T02:38:36.532Z,1010.05
2018-04-16T02:39:30.517Z,1010.08
2018-04-16T02:39:31.090Z,1010.04
2018-04-16T02:39:31.679Z,1010.08
2018-04-16T02:39:32.280Z,1010.09
2018-04-16T02:39:32.879Z,1010.11
2018-04-16T02:39:33.478Z,1010.09
2018-04-16T02:39:34.088Z,1010.09
2018-04-16T02:40:27.626Z,1010.08
2018-04-16T02:40:28.223Z,1010.04
2018-04-16T02:40:28.827Z,1010.04
2018-04-16T02:40:29.421Z,1010.04
2018-04-16T02:40:30.020Z,1010.06
2018-04-16T02:40:30.621Z,1010.06
2018-04-16T02:40:31.223Z,1010.06
2018-04-16T02:40:31.821Z,1010.06
2018-04-16T02:41:25.795Z,1010.09
2018-04-16T02:41:26.383Z,1010.06
2018-04-16T02:41:26.983Z,1010.04
2018-04-16T02:41:27.583Z,1010.08
2018-04-16T02:41:28.182Z,1010.03
2018-04-16T02:41:28.786Z,1010.09
2018-04-16T02:41:29.384Z,1010.05
2018-04-16T02:42:25.896Z,1010.06
2018-04-16T02:42:26.496Z,1010.05
2018-04-16T02:42:27.092Z,1010.06
2018-04-16T02:43:20.579Z,1010.02
2018-04-16T02:43:21.175Z,1010.08
2018-04-16T02:43:21.777Z,1010.06
2018-04-16T02:43:22.375Z,1010.03
2018-04-16T02:43:22.978Z,1010.06
2018-04-16T02:43:23.576Z,1010.07
2018-04-16T02:43:24.178Z,1010.09
2018-04-16T02:43:24.778Z,1010.07
2018-04-16T02:44:18.740Z,1010.06
2018-04-16T02:44:19.391Z,1010.10
2018-04-16T02:44:19.940Z,1010.08
2018-04-16T02:44:20.538Z,1010.07
2018-04-16T02:44:21.136Z,1010.08
2018-04-16T02:44:21.740Z,1010.10
2018-04-16T02:44:22.342Z,1010.05
2018-04-16T02:45:16.825Z,1010.08
2018-04-16T02:45:17.415Z,1010.09
2018-04-16T02:45:18.000Z,1010.05
2018-04-16T02:45:18.602Z,1010.08
2018-04-16T02:45:19.199Z,1010.05
2018-04-16T02:45:19.802Z,1010.05
2018-04-16T02:45:20.400Z,1010.09
2018-04-16T02:45:21.000Z,1010.09
2018-04-16T02:46:15.479Z,1010.07
2018-04-16T02:46:16.076Z,1010.08
2018-04-16T02:46:16.675Z,1010.09
2018-04-16T02:46:17.276Z,1010.10
2018-04-16T02:46:17.877Z,1010.13
2018-04-16T02:46:18.477Z,1010.10
2018-04-16T02:46:19.075Z,1010.12
2018-04-16T02:46:19.678Z,1010.07
2018-04-16T02:47:13.129Z,1010.08
2018-04-16T02:47:13.733Z,1010.08
2018-04-16T02:47:14.328Z,1010.06
2018-04-16T02:47:14.926Z,1010.08
2018-04-16T02:47:15.528Z,1010.12
2018-04-16T02:47:16.127Z,1010.10
2018-04-16T02:47:16.727Z,1010.09
2018-04-16T02:47:17.328Z,1010.09
2018-04-16T02:48:11.813Z,1010.11
2018-04-16T02:48:12.406Z,1010.13
2018-04-16T02:48:13.002Z,1010.09
2018-04-16T02:48:13.609Z,1010.08
2018-04-16T02:48:14.205Z,1010.11
2018-04-16T02:48:14.804Z,1010.09
2018-04-16T02:48:15.403Z,1010.11
2018-04-16T02:48:16.003Z,1010.11
2018-04-16T02:49:09.459Z,1010.15
2018-04-16T02:49:10.068Z,1010.11
2018-04-16T02:49:10.655Z,1010.12
2018-04-16T02:49:11.268Z,1010.10
2018-04-16T02:49:11.860Z,1010.13
2018-04-16T02:49:12.458Z,1010.14
2018-04-16T02:49:13.055Z,1010.12
2018-04-16T02:49:13.655Z,1010.14
2018-04-16T02:50:07.241Z,1010.16
2018-04-16T02:50:07.816Z,1010.16
2018-04-16T02:50:08.410Z,1010.14
2018-04-16T02:50:09.011Z,1010.12
2018-04-16T02:50:09.610Z,1010.14
2018-04-16T02:50:10.211Z,1010.15
2018-04-16T02:50:10.810Z,1010.13
2018-04-16T02:50:11.409Z,1010.16
2018-04-16T02:51:06.459Z,1010.14
2018-04-16T02:51:07.005Z,1010.13
2018-04-16T02:51:07.596Z,1010.12
2018-04-16T02:51:08.196Z,1010.10
2018-04-16T02:51:08.795Z,1010.12
2018-04-16T02:51:09.426Z,1010.13
2018-04-16T02:51:09.995Z,1010.14
2018-04-16T02:52:04.460Z,1010.14
2018-04-16T02:52:05.062Z,1010.13
2018-04-16T02:52:05.657Z,1010.12
2018-04-16T02:52:06.256Z,1010.17
2018-04-16T02:52:06.856Z,1010.11
2018-04-16T02:52:07.462Z,1010.15
2018-04-16T02:52:08.058Z,1010.13
2018-04-16T02:52:08.656Z,1010.17
2018-04-16T02:53:02.635Z,1010.15
2018-04-16T02:53:03.228Z,1010.15
2018-04-16T02:53:03.821Z,1010.15
2018-04-16T02:53:04.425Z,1010.15
2018-04-16T02:53:05.023Z,1010.16
2018-04-16T02:53:05.622Z,1010.12
2018-04-16T02:53:06.220Z,1010.17
2018-04-16T02:54:01.197Z,1010.16
2018-04-16T02:54:01.799Z,1010.14
2018-04-16T02:54:02.430Z,1010.16
2018-04-16T02:54:02.995Z,1010.15
2018-04-16T02:54:03.595Z,1010.16
2018-04-16T02:54:04.196Z,1010.15
2018-04-16T02:54:59.157Z,1010.17
2018-04-16T02:54:59.756Z,1010.18
2018-04-16T02:55:00.354Z,1010.14
2018-04-16T02:55:00.954Z,1010.15
2018-04-16T02:55:01.557Z,1010.17
2018-04-16T02:55:02.155Z,1010.18
2018-04-16T02:55:02.754Z,1010.18
2018-04-16T02:55:03.353Z,1010.20
2018-04-16T02:55:56.830Z,1010.18
2018-04-16T02:55:57.408Z,1010.17
2018-04-16T02:55:58.007Z,1010.16
2018-04-16T02:55:58.606Z,1010.13
2018-04-16T02:55:59.206Z,1010.14
2018-04-16T02:55:59.806Z,1010.13
2018-04-16T02:56:00.406Z,1010.16
2018-04-16T02:56:01.009Z,1010.18
2018-04-16T02:56:54.463Z,1010.18
2018-04-16T02:56:55.083Z,1010.18
2018-04-16T02:56:55.659Z,1010.16
2018-04-16T02:56:56.265Z,1010.14
2018-04-16T02:56:56.857Z,1010.19
2018-04-16T02:56:57.461Z,1010.15
2018-04-16T02:56:58.061Z,1010.21
2018-04-16T02:56:58.657Z,1010.21
2018-04-16T02:57:52.635Z,1010.16
2018-04-16T02:57:53.221Z,1010.17
2018-04-16T02:57:53.823Z,1010.19
2018-04-16T02:57:54.420Z,1010.18
2018-04-16T02:57:55.020Z,1010.17
2018-04-16T02:57:55.621Z,1010.18
2018-04-16T02:57:56.220Z,1010.21
2018-04-16T02:58:49.764Z,1010.18
2018-04-16T02:58:50.370Z,1010.18
2018-04-16T02:58:50.960Z,1010.19
2018-04-16T02:58:51.560Z,1010.18
2018-04-16T02:58:52.161Z,1010.16
2018-04-16T02:58:52.762Z,1010.19
2018-04-16T02:58:53.360Z,1010.17
2018-04-16T02:58:53.962Z,1010.17
2018-04-16T02:59:52.432Z,1010.20
2018-04-16T02:59:53.031Z,1010.15
2018-04-16T02:59:53.630Z,1010.17
2018-04-16T02:59:54.228Z,1010.14
2018-04-16T02:59:54.829Z,1010.15
2018-04-16T02:59:55.448Z,1010.16
2018-04-16T02:59:56.027Z,1010.17
2018-04-16T02:59:56.631Z,1010.14
2018-04-16T02:59:57.238Z,1010.16
2018-04-16T02:59:57.827Z,1010.12
2018-04-16T02:59:58.427Z,1010.17
2018-04-16T02:59:59.026Z,1010.18
2018-04-16T02:59:59.627Z,1010.16
2018-04-16T03:00:00.227Z,1010.19
2018-04-16T03:00:00.832Z,1010.18
2018-04-16T03:00:01.446Z,1010.15
2018-04-16T03:00:02.026Z,1010.15
2018-04-16T03:01:01.064Z,1010.17
2018-04-16T03:01:01.640Z,1010.16
2018-04-16T03:01:02.239Z,1010.14
2018-04-16T03:01:02.838Z,1010.14
2018-04-16T03:01:03.437Z,1010.14
2018-04-16T03:01:04.037Z,1010.17
2018-04-16T03:01:04.637Z,1010.20
2018-04-16T03:01:05.255Z,1010.16
2018-04-16T03:01:05.848Z,1010.17
2018-04-16T03:01:06.435Z,1010.19
2018-04-16T03:01:07.040Z,1010.19
2018-04-16T03:01:07.637Z,1010.16
2018-04-16T03:01:08.250Z,1010.15
2018-04-16T03:01:08.837Z,1010.15
2018-04-16T03:01:09.440Z,1010.17
2018-04-16T03:01:10.040Z,1010.18
2018-04-16T03:02:23.588Z,1010.18
2018-04-16T03:02:24.175Z,1010.20
2018-04-16T03:02:24.777Z,1010.18
2018-04-16T03:02:25.374Z,1010.16
2018-04-16T03:02:25.976Z,1010.18
2018-04-16T03:02:26.577Z,1010.18
2018-04-16T03:02:27.175Z,1010.20
2018-04-16T03:02:27.773Z,1010.17
2018-04-16T03:03:21.228Z,1010.15
2018-04-16T03:03:21.825Z,1010.15
2018-04-16T03:03:22.433Z,1010.16
2018-04-16T03:03:23.025Z,1010.16
2018-04-16T03:03:23.624Z,1010.20
2018-04-16T03:03:24.223Z,1010.20
2018-04-16T03:03:24.838Z,1010.21
2018-04-16T03:03:25.423Z,1010.21
2018-04-16T03:04:18.880Z,1010.19
2018-04-16T03:04:19.484Z,1010.19
2018-04-16T03:04:20.079Z,1010.19
2018-04-16T03:04:20.678Z,1010.20
2018-04-16T03:04:21.290Z,1010.22
2018-04-16T03:04:21.877Z,1010.19
2018-04-16T03:04:22.477Z,1010.19
2018-04-16T03:04:23.078Z,1010.18
2018-04-16T03:05:16.531Z,1010.20
2018-04-16T03:05:17.134Z,1010.23
2018-04-16T03:05:17.732Z,1010.22
2018-04-16T03:05:18.328Z,1010.20
2018-04-16T03:05:18.930Z,1010.23
2018-04-16T03:05:19.529Z,1010.22
2018-04-16T03:05:20.129Z,1010.18
2018-04-16T03:05:20.727Z,1010.21
2018-04-16T03:06:15.742Z,1010.16
2018-04-16T03:06:16.322Z,1010.16
2018-04-16T03:06:16.919Z,1010.18
2018-04-16T03:06:17.516Z,1010.17
2018-04-16T03:06:18.117Z,1010.19
2018-04-16T03:06:18.717Z,1010.18
2018-04-16T03:07:12.759Z,1010.21
2018-04-16T03:07:13.374Z,1010.19
2018-04-16T03:07:13.965Z,1010.19
2018-04-16T03:07:14.553Z,1010.18
2018-04-16T03:07:15.153Z,1010.18
2018-04-16T03:07:15.753Z,1010.18
2018-04-16T03:07:16.355Z,1010.18
2018-04-16T03:07:16.953Z,1010.17
2018-04-16T03:08:11.432Z,1010.21
2018-04-16T03:08:12.029Z,1010.24
2018-04-16T03:08:12.637Z,1010.22
2018-04-16T03:08:13.230Z,1010.21
2018-04-16T03:08:13.834Z,1010.20
2018-04-16T03:08:14.440Z,1010.20
2018-04-16T03:08:15.029Z,1010.18
2018-04-16T03:08:15.643Z,1010.20
2018-04-16T03:09:09.086Z,1010.19
2018-04-16T03:09:09.683Z,1010.20
2018-04-16T03:09:10.283Z,1010.22
2018-04-16T03:09:10.882Z,1010.22
2018-04-16T03:09:11.483Z,1010.19
2018-04-16T03:09:12.083Z,1010.24
2018-04-16T03:09:12.685Z,1010.20
2018-04-16T03:09:13.281Z,1010.21
2018-04-16T03:10:07.252Z,1010.26
2018-04-16T03:10:07.852Z,1010.26
2018-04-16T03:10:08.446Z,1010.24
2018-04-16T03:10:09.046Z,1010.27
2018-04-16T03:10:09.648Z,1010.25
2018-04-16T03:10:10.247Z,1010.24
2018-04-16T03:10:10.852Z,1010.27
2018-04-16T03:11:04.410Z,1010.31
2018-04-16T03:11:04.987Z,1010.30
2018-04-16T03:11:05.593Z,1010.31
2018-04-16T03:11:06.186Z,1010.29
2018-04-16T03:11:06.804Z,1010.32
2018-04-16T03:11:07.386Z,1010.30
2018-04-16T03:11:07.985Z,1010.30
2018-04-16T03:11:08.589Z,1010.27
2018-04-16T03:30:15.697Z,1010.15
2018-04-16T03:30:16.203Z,1010.15
2018-04-16T03:30:16.800Z,1010.17
2018-04-16T03:30:17.399Z,1010.16
2018-04-16T03:30:18.005Z,1010.16
2018-04-16T03:30:18.599Z,1010.17
2018-04-16T04:44:46.629Z,1010.61
2018-04-16T04:44:47.197Z,1010.62
2018-04-16T04:44:47.797Z,1010.61
2018-04-16T04:44:48.398Z,1010.60
2018-04-16T04:44:48.996Z,1010.63
2018-04-16T04:44:49.598Z,1010.58
2018-04-16T04:44:50.197Z,1010.58
2018-04-16T04:44:50.795Z,1010.58
2018-04-16T04:45:45.282Z,1010.63
2018-04-16T04:45:45.914Z,1010.65
2018-04-16T04:45:46.472Z,1010.64
2018-04-16T04:45:47.073Z,1010.63
2018-04-16T04:45:47.673Z,1010.62
2018-04-16T04:45:48.273Z,1010.67
2018-04-16T04:45:48.876Z,1010.62
2018-04-16T04:45:49.473Z,1010.63
2018-04-16T04:46:43.952Z,1010.63
2018-04-16T04:46:44.553Z,1010.63
2018-04-16T04:46:45.149Z,1010.65
2018-04-16T04:46:45.749Z,1010.65
2018-04-16T04:46:46.348Z,1010.64
2018-04-16T04:46:46.949Z,1010.66
2018-04-16T04:46:47.551Z,1010.66
2018-04-16T04:46:48.148Z,1010.63
2018-04-16T04:47:41.605Z,1010.66
2018-04-16T04:47:42.202Z,1010.66
2018-04-16T04:47:42.804Z,1010.65
2018-04-16T04:47:43.401Z,1010.65
2018-04-16T04:47:44.001Z,1010.65
2018-04-16T04:47:44.604Z,1010.66
2018-04-16T04:47:45.201Z,1010.66
2018-04-16T04:47:45.800Z,1010.70
2018-04-16T04:48:39.256Z,1010.66
2018-04-16T04:48:39.855Z,1010.64
2018-04-16T04:48:40.453Z,1010.65
2018-04-16T04:48:41.068Z,1010.64
2018-04-16T04:48:41.654Z,1010.66
2018-04-16T04:48:42.253Z,1010.67
2018-04-16T04:48:42.853Z,1010.66
2018-04-16T04:48:43.453Z,1010.64
2018-04-16T04:49:37.932Z,1010.62
2018-04-16T04:49:38.529Z,1010.61
2018-04-16T04:49:39.128Z,1010.61
2018-04-16T04:49:39.728Z,1010.64
2018-04-16T04:49:40.328Z,1010.65
2018-04-16T04:49:40.929Z,1010.66
2018-04-16T04:49:41.528Z,1010.65
2018-04-16T04:49:42.128Z,1010.68
2018-04-16T04:50:35.611Z,1010.63
2018-04-16T04:50:36.182Z,1010.64
2018-04-16T04:50:36.781Z,1010.68
2018-04-16T04:50:37.388Z,1010.64
2018-04-16T04:50:37.989Z,1010.65
2018-04-16T04:50:38.580Z,1010.66
2018-04-16T04:50:39.180Z,1010.61
2018-04-16T04:50:39.786Z,1010.64
2018-04-16T04:51:33.238Z,1010.62
2018-04-16T04:51:33.836Z,1010.66
2018-04-16T04:51:34.456Z,1010.63
2018-04-16T04:51:35.035Z,1010.65
2018-04-16T04:51:35.634Z,1010.64
2018-04-16T04:51:36.234Z,1010.63
2018-04-16T04:51:36.834Z,1010.67
2018-04-16T04:51:37.432Z,1010.63
2018-04-16T04:52:30.889Z,1010.61
2018-04-16T04:52:31.487Z,1010.62
2018-04-16T04:52:32.084Z,1010.59
2018-04-16T04:52:32.685Z,1010.61
2018-04-16T04:52:33.284Z,1010.61
2018-04-16T04:52:33.890Z,1010.59
2018-04-16T04:52:34.488Z,1010.60
2018-04-16T04:52:35.084Z,1010.65
2018-04-16T04:53:28.539Z,1010.62
2018-04-16T04:53:29.138Z,1010.64
2018-04-16T04:53:29.736Z,1010.66
2018-04-16T04:53:30.337Z,1010.62
2018-04-16T04:53:30.949Z,1010.64
2018-04-16T04:53:31.538Z,1010.63
2018-04-16T04:53:32.137Z,1010.63
2018-04-16T04:53:32.737Z,1010.66
2018-04-16T04:54:27.215Z,1010.66
2018-04-16T04:54:27.816Z,1010.64
2018-04-16T04:54:28.413Z,1010.63
2018-04-16T04:54:29.013Z,1010.59
2018-04-16T04:54:29.612Z,1010.63
2018-04-16T04:54:30.213Z,1010.63
2018-04-16T04:54:30.814Z,1010.62
2018-04-16T04:54:31.414Z,1010.65
2018-04-16T04:55:26.432Z,1010.65
2018-04-16T04:55:27.002Z,1010.64
2018-04-16T04:55:27.606Z,1010.66
2018-04-16T04:55:28.200Z,1010.64
2018-04-16T04:55:28.799Z,1010.59
2018-04-16T04:55:29.399Z,1010.63
2018-04-16T04:55:29.999Z,1010.67
2018-04-16T04:56:23.544Z,1010.63
2018-04-16T04:56:24.142Z,1010.64
2018-04-16T04:56:24.741Z,1010.65
2018-04-16T04:56:25.341Z,1010.64
2018-04-16T04:56:25.945Z,1010.66
2018-04-16T04:56:26.539Z,1010.66
2018-04-16T04:56:27.141Z,1010.64
2018-04-16T04:56:27.749Z,1010.66
2018-04-16T04:57:21.195Z,1010.68
2018-04-16T04:57:21.793Z,1010.70
2018-04-16T04:57:22.392Z,1010.69
2018-04-16T04:57:22.993Z,1010.67
2018-04-16T04:57:23.592Z,1010.68
2018-04-16T04:57:24.191Z,1010.66
2018-04-16T04:57:24.792Z,1010.66
2018-04-16T04:57:25.391Z,1010.66
2018-04-16T04:58:19.874Z,1010.65
2018-04-16T04:58:20.468Z,1010.66
2018-04-16T04:58:21.070Z,1010.66
2018-04-16T04:58:21.668Z,1010.65
2018-04-16T04:58:22.271Z,1010.65
2018-04-16T04:58:22.868Z,1010.62
2018-04-16T04:58:23.466Z,1010.63
2018-04-16T04:58:24.080Z,1010.69
2018-04-16T04:59:17.523Z,1010.61
2018-04-16T04:59:18.120Z,1010.63
2018-04-16T04:59:18.720Z,1010.63
2018-04-16T04:59:19.320Z,1010.63
2018-04-16T04:59:19.921Z,1010.62
2018-04-16T04:59:20.520Z,1010.65
2018-04-16T04:59:21.119Z,1010.64
2018-04-16T04:59:21.721Z,1010.65
2018-04-16T05:00:15.197Z,1010.60
2018-04-16T05:00:15.772Z,1010.61
2018-04-16T05:00:16.372Z,1010.61
2018-04-16T05:00:16.971Z,1010.61
2018-04-16T05:00:17.572Z,1010.62
2018-04-16T05:00:18.171Z,1010.59
2018-04-16T05:00:18.771Z,1010.59
2018-04-16T05:00:19.371Z,1010.63
2018-04-16T05:01:13.850Z,1010.60
2018-04-16T05:01:14.448Z,1010.60
2018-04-16T05:01:15.048Z,1010.60
2018-04-16T05:01:15.645Z,1010.57
2018-04-16T05:01:16.249Z,1010.62
2018-04-16T05:01:16.849Z,1010.59
2018-04-16T05:01:17.447Z,1010.58
2018-04-16T05:01:18.046Z,1010.59
2018-04-16T05:02:11.605Z,1010.58
2018-04-16T05:02:12.202Z,1010.61
2018-04-16T05:02:12.802Z,1010.60
2018-04-16T05:02:13.402Z,1010.59
2018-04-16T05:02:14.003Z,1010.57
2018-04-16T05:02:14.601Z,1010.64
2018-04-16T05:02:15.201Z,1010.59
2018-04-16T05:02:15.810Z,1010.66
2018-04-16T05:03:10.280Z,1010.60
2018-04-16T05:03:10.876Z,1010.61
2018-04-16T05:03:11.476Z,1010.59
2018-04-16T05:03:12.076Z,1010.62
2018-04-16T05:03:12.678Z,1010.60
2018-04-16T05:03:13.277Z,1010.62
2018-04-16T05:03:13.875Z,1010.63
2018-04-16T05:03:14.476Z,1010.61
2018-04-16T05:04:07.937Z,1010.62
2018-04-16T05:04:08.529Z,1010.63
2018-04-16T05:04:09.129Z,1010.62
2018-04-16T05:04:09.729Z,1010.61
2018-04-16T05:04:10.331Z,1010.62
2018-04-16T05:04:10.931Z,1010.61
2018-04-16T05:04:11.549Z,1010.62
2018-04-16T05:04:12.129Z,1010.60
2018-04-16T05:05:06.607Z,1010.65
2018-04-16T05:05:07.205Z,1010.67
2018-04-16T05:05:07.803Z,1010.66
2018-04-16T05:05:08.404Z,1010.65
2018-04-16T05:05:09.004Z,1010.64
2018-04-16T05:05:09.604Z,1010.64
2018-04-16T05:05:10.207Z,1010.66
2018-04-16T05:05:10.804Z,1010.63
2018-04-16T05:06:04.281Z,1010.70
2018-04-16T05:06:04.855Z,1010.68
2018-04-16T05:06:05.457Z,1010.62
2018-04-16T05:06:06.056Z,1010.65
2018-04-16T05:06:06.657Z,1010.68
2018-04-16T05:06:07.255Z,1010.70
2018-04-16T05:06:07.857Z,1010.66
2018-04-16T05:06:08.456Z,1010.66
2018-04-16T05:07:02.934Z,1010.71
2018-04-16T05:07:03.534Z,1010.70
2018-04-16T05:07:04.133Z,1010.69
2018-04-16T05:07:04.731Z,1010.70
2018-04-16T05:07:05.332Z,1010.70
2018-04-16T05:07:05.931Z,1010.68
2018-04-16T05:07:06.534Z,1010.69
2018-04-16T05:07:07.130Z,1010.72
2018-04-16T05:08:00.586Z,1010.75
2018-04-16T05:08:01.189Z,1010.73
2018-04-16T05:08:01.785Z,1010.73
2018-04-16T05:08:02.384Z,1010.69
2018-04-16T05:08:02.983Z,1010.73
2018-04-16T05:08:03.586Z,1010.71
2018-04-16T05:08:04.187Z,1010.72
2018-04-16T05:08:04.783Z,1010.75
2018-04-16T05:08:58.342Z,1010.75
2018-04-16T05:08:58.938Z,1010.74
2018-04-16T05:08:59.538Z,1010.78
2018-04-16T05:09:00.139Z,1010.75
2018-04-16T05:09:00.740Z,1010.75
2018-04-16T05:09:01.341Z,1010.76
2018-04-16T05:09:01.938Z,1010.76
2018-04-16T05:09:02.542Z,1010.74
2018-04-16T05:09:55.991Z,1010.78
2018-04-16T05:09:56.591Z,1010.78
2018-04-16T05:09:57.190Z,1010.77
2018-04-16T05:09:57.790Z,1010.76
2018-04-16T05:09:58.391Z,1010.79
2018-04-16T05:09:58.991Z,1010.77
2018-04-16T05:09:59.590Z,1010.74
2018-04-16T05:10:00.190Z,1010.76
2018-04-16T05:10:53.667Z,1010.76
2018-04-16T05:10:54.242Z,1010.78
2018-04-16T05:10:54.841Z,1010.75
2018-04-16T05:10:55.441Z,1010.76
2018-04-16T05:10:56.040Z,1010.80
2018-04-16T05:10:56.642Z,1010.77
2018-04-16T05:10:57.240Z,1010.78
2018-04-16T05:10:57.841Z,1010.79
2018-04-16T05:11:51.297Z,1010.78
2018-04-16T05:11:51.902Z,1010.77
2018-04-16T05:11:52.493Z,1010.76
2018-04-16T05:11:53.093Z,1010.78
2018-04-16T05:11:53.695Z,1010.80
2018-04-16T05:11:54.292Z,1010.76
2018-04-16T05:11:54.893Z,1010.76
2018-04-16T05:11:55.495Z,1010.80
2018-04-16T05:12:48.947Z,1010.81
2018-04-16T05:12:49.550Z,1010.82
2018-04-16T05:12:50.145Z,1010.84
2018-04-16T05:12:50.744Z,1010.80
2018-04-16T05:12:51.344Z,1010.80
2018-04-16T05:12:51.948Z,1010.81
2018-04-16T05:12:52.543Z,1010.84
2018-04-16T05:12:53.144Z,1010.83
2018-04-16T05:13:46.600Z,1010.84
2018-04-16T05:13:47.197Z,1010.83
2018-04-16T05:13:47.797Z,1010.80
2018-04-16T05:13:48.397Z,1010.79
2018-04-16T05:13:48.998Z,1010.82
2018-04-16T05:13:49.597Z,1010.84
2018-04-16T05:13:50.197Z,1010.83
2018-04-16T05:13:50.799Z,1010.85
2018-04-16T05:14:45.273Z,1010.84
2018-04-16T05:14:45.872Z,1010.86
2018-04-16T05:14:46.473Z,1010.85
2018-04-16T05:14:47.072Z,1010.85
2018-04-16T05:14:47.672Z,1010.84
2018-04-16T05:14:48.270Z,1010.86
2018-04-16T05:14:48.871Z,1010.89
2018-04-16T05:14:49.470Z,1010.85
2018-04-16T05:15:43.046Z,1010.88
2018-04-16T05:15:43.548Z,1010.84
2018-04-16T05:15:44.147Z,1010.83
2018-04-16T05:15:44.747Z,1010.86
2018-04-16T05:15:45.346Z,1010.83
2018-04-16T05:15:45.944Z,1010.86
2018-04-16T05:15:46.546Z,1010.88
2018-04-16T05:15:47.146Z,1010.88
2018-04-16T05:16:41.601Z,1010.86
2018-04-16T05:16:42.198Z,1010.88
2018-04-16T05:16:42.798Z,1010.86
2018-04-16T05:16:43.398Z,1010.89
2018-04-16T05:16:43.999Z,1010.85
2018-04-16T05:16:44.601Z,1010.87
2018-04-16T05:16:45.225Z,1010.87
2018-04-16T05:16:45.799Z,1010.86
2018-04-16T05:17:39.254Z,1010.91
2018-04-16T05:17:39.852Z,1010.91